sensor_id;sensor_type;location;lat;lon;timestamp;temperature;humidity
85531;SHT35;75970;52.122;5.406;2024-01-30T00:01:25;21.07;45.96
85531;SHT35;75970;52.122;5.406;2024-01-30T00:03:55;21.04;46.01
85531;SHT35;75970;52.122;5.406;2024-01-30T00:06:26;21.01;46.04
85531;SHT35;75970;52.122;5.406;2024-01-30T00:08:56;20.99;46.04
85531;SHT35;75970;52.122;5.406;2024-01-30T00:11:27;20.96;46.09
85531;SHT35;75970;52.122;5.406;2024-01-30T00:13:57;20.94;46.11
85531;SHT35;75970;52.122;5.406;2024-01-30T00:16:28;20.92;46.15
85531;SHT35;75970;52.122;5.406;2024-01-30T00:18:58;20.89;46.14
85531;SHT35;75970;52.122;5.406;2024-01-30T00:21:31;20.86;46.17
85531;SHT35;75970;52.122;5.406;2024-01-30T00:24:01;20.83;46.20
85531;SHT35;75970;52.122;5.406;2024-01-30T00:26:31;20.81;46.22
85531;SHT35;75970;52.122;5.406;2024-01-30T00:29:02;20.78;46.20
85531;SHT35;75970;52.122;5.406;2024-01-30T00:31:32;20.75;46.22
85531;SHT35;75970;52.122;5.406;2024-01-30T00:34:08;20.72;46.25
85531;SHT35;75970;52.122;5.406;2024-01-30T00:36:38;20.69;46.31
85531;SHT35;75970;52.122;5.406;2024-01-30T00:39:09;20.66;46.33
85531;SHT35;75970;52.122;5.406;2024-01-30T00:41:39;20.62;46.40
85531;SHT35;75970;52.122;5.406;2024-01-30T00:44:09;20.59;46.44
85531;SHT35;75970;52.122;5.406;2024-01-30T00:46:39;20.57;46.48
85531;SHT35;75970;52.122;5.406;2024-01-30T00:49:10;20.54;46.53
85531;SHT35;75970;52.122;5.406;2024-01-30T00:51:41;20.51;46.54
85531;SHT35;75970;52.122;5.406;2024-01-30T00:54:11;20.49;46.57
85531;SHT35;75970;52.122;5.406;2024-01-30T00:56:41;20.47;46.59
85531;SHT35;75970;52.122;5.406;2024-01-30T00:59:12;20.45;46.63
85531;SHT35;75970;52.122;5.406;2024-01-30T01:01:42;20.42;46.63
85531;SHT35;75970;52.122;5.406;2024-01-30T01:04:13;20.41;46.69
85531;SHT35;75970;52.122;5.406;2024-01-30T01:06:43;20.39;46.69
85531;SHT35;75970;52.122;5.406;2024-01-30T01:09:13;20.37;46.69
85531;SHT35;75970;52.122;5.406;2024-01-30T01:11:44;20.34;46.69
85531;SHT35;75970;52.122;5.406;2024-01-30T01:14:14;20.32;46.76
85531;SHT35;75970;52.122;5.406;2024-01-30T01:16:47;20.30;46.75
85531;SHT35;75970;52.122;5.406;2024-01-30T01:19:17;20.29;46.76
85531;SHT35;75970;52.122;5.406;2024-01-30T01:21:48;20.26;46.76
85531;SHT35;75970;52.122;5.406;2024-01-30T01:24:18;20.24;46.80
85531;SHT35;75970;52.122;5.406;2024-01-30T01:26:48;20.21;46.82
85531;SHT35;75970;52.122;5.406;2024-01-30T01:29:19;20.20;46.87
85531;SHT35;75970;52.122;5.406;2024-01-30T01:31:49;20.17;46.87
85531;SHT35;75970;52.122;5.406;2024-01-30T01:34:20;20.15;46.91
85531;SHT35;75970;52.122;5.406;2024-01-30T01:36:51;20.13;46.93
85531;SHT35;75970;52.122;5.406;2024-01-30T01:39:24;20.11;46.96
85531;SHT35;75970;52.122;5.406;2024-01-30T01:41:54;20.09;46.98
85531;SHT35;75970;52.122;5.406;2024-01-30T01:44:24;20.08;47.00
85531;SHT35;75970;52.122;5.406;2024-01-30T01:46:55;20.07;46.99
85531;SHT35;75970;52.122;5.406;2024-01-30T01:49:27;20.05;47.03
85531;SHT35;75970;52.122;5.406;2024-01-30T01:51:59;20.04;47.01
85531;SHT35;75970;52.122;5.406;2024-01-30T01:54:30;20.03;47.02
85531;SHT35;75970;52.122;5.406;2024-01-30T01:57:00;20.01;47.02
85531;SHT35;75970;52.122;5.406;2024-01-30T01:59:31;20.01;47.03
85531;SHT35;75970;52.122;5.406;2024-01-30T02:02:02;19.99;47.04
85531;SHT35;75970;52.122;5.406;2024-01-30T02:04:33;19.98;47.06
85531;SHT35;75970;52.122;5.406;2024-01-30T02:07:04;19.97;47.06
85531;SHT35;75970;52.122;5.406;2024-01-30T02:09:34;19.96;47.07
85531;SHT35;75970;52.122;5.406;2024-01-30T02:12:05;19.95;47.06
85531;SHT35;75970;52.122;5.406;2024-01-30T02:14:45;19.94;47.04
85531;SHT35;75970;52.122;5.406;2024-01-30T02:17:18;19.93;47.05
85531;SHT35;75970;52.122;5.406;2024-01-30T02:19:48;19.91;47.07
85531;SHT35;75970;52.122;5.406;2024-01-30T02:22:20;19.89;47.09
85531;SHT35;75970;52.122;5.406;2024-01-30T02:24:51;19.88;47.10
85531;SHT35;75970;52.122;5.406;2024-01-30T02:27:21;19.87;47.09
85531;SHT35;75970;52.122;5.406;2024-01-30T02:29:52;19.85;47.11
85531;SHT35;75970;52.122;5.406;2024-01-30T02:32:22;19.84;47.11
85531;SHT35;75970;52.122;5.406;2024-01-30T02:34:52;19.83;47.13
85531;SHT35;75970;52.122;5.406;2024-01-30T02:37:23;19.82;47.14
85531;SHT35;75970;52.122;5.406;2024-01-30T02:39:53;19.81;47.13
85531;SHT35;75970;52.122;5.406;2024-01-30T02:42:24;19.80;47.13
85531;SHT35;75970;52.122;5.406;2024-01-30T02:44:55;19.78;47.14
85531;SHT35;75970;52.122;5.406;2024-01-30T02:47:25;19.76;47.16
85531;SHT35;75970;52.122;5.406;2024-01-30T02:49:55;19.75;47.14
85531;SHT35;75970;52.122;5.406;2024-01-30T02:52:26;19.74;47.17
85531;SHT35;75970;52.122;5.406;2024-01-30T02:54:56;19.73;47.16
85531;SHT35;75970;52.122;5.406;2024-01-30T02:57:27;19.71;47.19
85531;SHT35;75970;52.122;5.406;2024-01-30T02:59:57;19.70;47.23
85531;SHT35;75970;52.122;5.406;2024-01-30T03:02:27;19.68;47.22
85531;SHT35;75970;52.122;5.406;2024-01-30T03:04:59;19.67;47.23
85531;SHT35;75970;52.122;5.406;2024-01-30T03:07:29;19.66;47.24
85531;SHT35;75970;52.122;5.406;2024-01-30T03:10:00;19.65;47.23
85531;SHT35;75970;52.122;5.406;2024-01-30T03:12:30;19.63;47.23
85531;SHT35;75970;52.122;5.406;2024-01-30T03:15:00;19.62;47.25
85531;SHT35;75970;52.122;5.406;2024-01-30T03:17:31;19.61;47.26
85531;SHT35;75970;52.122;5.406;2024-01-30T03:20:01;19.59;47.25
85531;SHT35;75970;52.122;5.406;2024-01-30T03:22:32;19.57;47.29
85531;SHT35;75970;52.122;5.406;2024-01-30T03:25:03;19.57;47.31
85531;SHT35;75970;52.122;5.406;2024-01-30T03:27:33;19.55;47.29
85531;SHT35;75970;52.122;5.406;2024-01-30T03:30:04;19.54;47.31
85531;SHT35;75970;52.122;5.406;2024-01-30T03:32:35;19.52;47.33
85531;SHT35;75970;52.122;5.406;2024-01-30T03:35:05;19.51;47.33
85531;SHT35;75970;52.122;5.406;2024-01-30T03:37:36;19.50;47.33
85531;SHT35;75970;52.122;5.406;2024-01-30T03:40:06;19.49;47.34
85531;SHT35;75970;52.122;5.406;2024-01-30T03:42:37;19.48;47.35
85531;SHT35;75970;52.122;5.406;2024-01-30T03:45:07;19.46;47.37
85531;SHT35;75970;52.122;5.406;2024-01-30T03:47:38;19.45;47.34
85531;SHT35;75970;52.122;5.406;2024-01-30T03:50:08;19.43;47.35
85531;SHT35;75970;52.122;5.406;2024-01-30T03:52:39;19.42;47.40
85531;SHT35;75970;52.122;5.406;2024-01-30T03:55:09;19.41;47.36
85531;SHT35;75970;52.122;5.406;2024-01-30T03:57:39;19.40;47.43
85531;SHT35;75970;52.122;5.406;2024-01-30T04:00:10;19.38;47.42
85531;SHT35;75970;52.122;5.406;2024-01-30T04:02:40;19.38;47.43
85531;SHT35;75970;52.122;5.406;2024-01-30T04:05:11;19.36;47.42
85531;SHT35;75970;52.122;5.406;2024-01-30T04:07:41;19.35;47.43
85531;SHT35;75970;52.122;5.406;2024-01-30T04:10:11;19.33;47.48
85531;SHT35;75970;52.122;5.406;2024-01-30T04:12:42;19.33;47.48
85531;SHT35;75970;52.122;5.406;2024-01-30T04:15:12;19.32;47.47
85531;SHT35;75970;52.122;5.406;2024-01-30T04:17:43;19.31;47.49
85531;SHT35;75970;52.122;5.406;2024-01-30T04:20:16;19.30;47.48
85531;SHT35;75970;52.122;5.406;2024-01-30T04:22:47;19.30;47.45
85531;SHT35;75970;52.122;5.406;2024-01-30T04:25:17;19.28;47.47
85531;SHT35;75970;52.122;5.406;2024-01-30T04:27:48;19.27;47.46
85531;SHT35;75970;52.122;5.406;2024-01-30T04:30:18;19.26;47.46
85531;SHT35;75970;52.122;5.406;2024-01-30T04:32:48;19.24;47.50
85531;SHT35;75970;52.122;5.406;2024-01-30T04:35:19;19.24;47.49
85531;SHT35;75970;52.122;5.406;2024-01-30T04:37:53;19.23;47.51
85531;SHT35;75970;52.122;5.406;2024-01-30T04:40:23;19.21;47.49
85531;SHT35;75970;52.122;5.406;2024-01-30T04:42:53;19.20;47.49
85531;SHT35;75970;52.122;5.406;2024-01-30T04:45:23;19.19;47.47
85531;SHT35;75970;52.122;5.406;2024-01-30T04:47:54;19.18;47.50
85531;SHT35;75970;52.122;5.406;2024-01-30T04:50:24;19.17;47.52
85531;SHT35;75970;52.122;5.406;2024-01-30T04:52:55;19.16;47.51
85531;SHT35;75970;52.122;5.406;2024-01-30T04:55:26;19.14;47.54
85531;SHT35;75970;52.122;5.406;2024-01-30T04:57:56;19.13;47.55
85531;SHT35;75970;52.122;5.406;2024-01-30T05:00:26;19.12;47.54
85531;SHT35;75970;52.122;5.406;2024-01-30T05:02:56;19.10;47.57
85531;SHT35;75970;52.122;5.406;2024-01-30T05:05:27;19.09;47.60
85531;SHT35;75970;52.122;5.406;2024-01-30T05:07:57;19.08;47.59
85531;SHT35;75970;52.122;5.406;2024-01-30T05:10:27;19.07;47.61
85531;SHT35;75970;52.122;5.406;2024-01-30T05:12:58;19.07;47.63
85531;SHT35;75970;52.122;5.406;2024-01-30T05:15:28;19.05;47.61
85531;SHT35;75970;52.122;5.406;2024-01-30T05:17:59;19.05;47.60
85531;SHT35;75970;52.122;5.406;2024-01-30T05:20:29;19.04;47.65
85531;SHT35;75970;52.122;5.406;2024-01-30T05:23:00;19.04;47.61
85531;SHT35;75970;52.122;5.406;2024-01-30T05:25:30;19.04;47.66
85531;SHT35;75970;52.122;5.406;2024-01-30T05:28:00;19.07;47.83
85531;SHT35;75970;52.122;5.406;2024-01-30T05:30:31;19.10;47.87
85531;SHT35;75970;52.122;5.406;2024-01-30T05:33:01;19.16;47.89
85531;SHT35;75970;52.122;5.406;2024-01-30T05:35:31;19.24;47.87
85531;SHT35;75970;52.122;5.406;2024-01-30T05:38:02;19.36;47.82
85531;SHT35;75970;52.122;5.406;2024-01-30T05:40:32;19.51;47.74
85531;SHT35;75970;52.122;5.406;2024-01-30T05:43:02;19.70;47.59
85531;SHT35;75970;52.122;5.406;2024-01-30T05:45:33;19.91;47.41
85531;SHT35;75970;52.122;5.406;2024-01-30T05:48:06;20.16;47.16
85531;SHT35;75970;52.122;5.406;2024-01-30T05:50:36;20.42;46.84
85531;SHT35;75970;52.122;5.406;2024-01-30T05:53:07;20.70;46.53
85531;SHT35;75970;52.122;5.406;2024-01-30T05:55:37;20.98;46.20
85531;SHT35;75970;52.122;5.406;2024-01-30T05:58:07;21.24;45.90
85531;SHT35;75970;52.122;5.406;2024-01-30T06:00:38;21.49;45.57
85531;SHT35;75970;52.122;5.406;2024-01-30T06:03:08;21.72;45.29
85531;SHT35;75970;52.122;5.406;2024-01-30T06:05:38;21.93;45.02
85531;SHT35;75970;52.122;5.406;2024-01-30T06:08:09;22.12;44.81
85531;SHT35;75970;52.122;5.406;2024-01-30T06:10:39;22.28;44.57
85531;SHT35;75970;52.122;5.406;2024-01-30T06:13:09;22.43;44.39
85531;SHT35;75970;52.122;5.406;2024-01-30T06:15:40;22.54;44.18
85531;SHT35;75970;52.122;5.406;2024-01-30T06:18:10;22.64;44.02
85531;SHT35;75970;52.122;5.406;2024-01-30T06:20:41;22.72;43.89
85531;SHT35;75970;52.122;5.406;2024-01-30T06:23:11;22.78;43.77
85531;SHT35;75970;52.122;5.406;2024-01-30T06:25:41;22.83;43.64
85531;SHT35;75970;52.122;5.406;2024-01-30T06:28:12;22.87;43.53
85531;SHT35;75970;52.122;5.406;2024-01-30T06:30:42;22.88;43.46
85531;SHT35;75970;52.122;5.406;2024-01-30T06:33:12;22.90;43.38
85531;SHT35;75970;52.122;5.406;2024-01-30T06:35:43;22.90;43.33
85531;SHT35;75970;52.122;5.406;2024-01-30T06:38:14;22.89;43.29
85531;SHT35;75970;52.122;5.406;2024-01-30T06:40:44;22.87;43.28
85531;SHT35;75970;52.122;5.406;2024-01-30T06:43:15;22.84;43.26
85531;SHT35;75970;52.122;5.406;2024-01-30T06:45:45;22.81;43.29
85531;SHT35;75970;52.122;5.406;2024-01-30T06:48:15;22.76;43.30
85531;SHT35;75970;52.122;5.406;2024-01-30T06:50:46;22.71;43.32
85531;SHT35;75970;52.122;5.406;2024-01-30T06:53:16;22.66;43.41
85531;SHT35;75970;52.122;5.406;2024-01-30T06:55:47;22.62;43.49
85531;SHT35;75970;52.122;5.406;2024-01-30T06:58:17;22.57;43.56
85531;SHT35;75970;52.122;5.406;2024-01-30T07:00:47;22.54;43.64
85531;SHT35;75970;52.122;5.406;2024-01-30T07:03:18;22.51;43.71
85531;SHT35;75970;52.122;5.406;2024-01-30T07:05:48;22.49;43.78
85531;SHT35;75970;52.122;5.406;2024-01-30T07:08:18;22.47;43.83
85531;SHT35;75970;52.122;5.406;2024-01-30T07:10:49;22.46;43.87
85531;SHT35;75970;52.122;5.406;2024-01-30T07:13:28;22.45;43.91
85531;SHT35;75970;52.122;5.406;2024-01-30T07:15:59;22.46;43.93
85531;SHT35;75970;52.122;5.406;2024-01-30T07:18:29;22.46;43.95
85531;SHT35;75970;52.122;5.406;2024-01-30T07:20:59;22.47;43.96
85531;SHT35;75970;52.122;5.406;2024-01-30T07:23:29;22.48;43.96
85531;SHT35;75970;52.122;5.406;2024-01-30T07:26:03;22.50;43.94
85531;SHT35;75970;52.122;5.406;2024-01-30T07:28:33;22.51;43.96
85531;SHT35;75970;52.122;5.406;2024-01-30T07:31:04;22.53;43.96
85531;SHT35;75970;52.122;5.406;2024-01-30T07:33:35;22.55;43.95
85531;SHT35;75970;52.122;5.406;2024-01-30T07:36:06;22.56;43.94
85531;SHT35;75970;52.122;5.406;2024-01-30T07:38:36;22.57;43.94
85531;SHT35;75970;52.122;5.406;2024-01-30T07:41:06;22.59;43.91
85531;SHT35;75970;52.122;5.406;2024-01-30T07:43:38;22.60;43.88
85531;SHT35;75970;52.122;5.406;2024-01-30T07:46:08;22.62;43.87
85531;SHT35;75970;52.122;5.406;2024-01-30T07:48:39;22.63;43.85
85531;SHT35;75970;52.122;5.406;2024-01-30T07:51:09;22.65;43.81
85531;SHT35;75970;52.122;5.406;2024-01-30T07:53:41;22.66;43.82
85531;SHT35;75970;52.122;5.406;2024-01-30T07:56:11;22.67;43.80
85531;SHT35;75970;52.122;5.406;2024-01-30T07:58:41;22.68;43.80
85531;SHT35;75970;52.122;5.406;2024-01-30T08:01:11;22.69;43.77
85531;SHT35;75970;52.122;5.406;2024-01-30T08:03:42;22.70;43.75
85531;SHT35;75970;52.122;5.406;2024-01-30T08:06:12;22.71;43.73
85531;SHT35;75970;52.122;5.406;2024-01-30T08:08:43;22.73;43.69
85531;SHT35;75970;52.122;5.406;2024-01-30T08:11:13;22.73;43.69
85531;SHT35;75970;52.122;5.406;2024-01-30T08:13:43;22.74;43.67
85531;SHT35;75970;52.122;5.406;2024-01-30T08:16:13;22.74;43.64
85531;SHT35;75970;52.122;5.406;2024-01-30T08:18:44;22.75;43.65
85531;SHT35;75970;52.122;5.406;2024-01-30T08:21:14;22.76;43.62
85531;SHT35;75970;52.122;5.406;2024-01-30T08:23:46;22.76;43.63
85531;SHT35;75970;52.122;5.406;2024-01-30T08:26:16;22.76;43.61
85531;SHT35;75970;52.122;5.406;2024-01-30T08:28:47;22.76;43.62
85531;SHT35;75970;52.122;5.406;2024-01-30T08:31:17;22.76;43.61
85531;SHT35;75970;52.122;5.406;2024-01-30T08:33:47;22.76;43.61
85531;SHT35;75970;52.122;5.406;2024-01-30T08:36:18;22.76;43.60
85531;SHT35;75970;52.122;5.406;2024-01-30T08:38:49;22.76;43.58
85531;SHT35;75970;52.122;5.406;2024-01-30T08:41:22;22.76;43.58
85531;SHT35;75970;52.122;5.406;2024-01-30T08:43:52;22.76;43.59
85531;SHT35;75970;52.122;5.406;2024-01-30T08:46:23;22.74;43.60
85531;SHT35;75970;52.122;5.406;2024-01-30T08:48:53;22.74;43.61
85531;SHT35;75970;52.122;5.406;2024-01-30T08:51:24;22.73;43.63
85531;SHT35;75970;52.122;5.406;2024-01-30T08:53:54;22.72;43.63
85531;SHT35;75970;52.122;5.406;2024-01-30T08:56:24;22.70;43.65
85531;SHT35;75970;52.122;5.406;2024-01-30T08:58:55;22.70;43.66
85531;SHT35;75970;52.122;5.406;2024-01-30T09:01:28;22.68;43.67
85531;SHT35;75970;52.122;5.406;2024-01-30T09:03:58;22.67;43.69
85531;SHT35;75970;52.122;5.406;2024-01-30T09:06:29;22.66;43.70
85531;SHT35;75970;52.122;5.406;2024-01-30T09:08:59;22.64;43.73
85531;SHT35;75970;52.122;5.406;2024-01-30T09:11:30;22.63;43.73
85531;SHT35;75970;52.122;5.406;2024-01-30T09:14:00;22.60;43.76
85531;SHT35;75970;52.122;5.406;2024-01-30T09:16:30;22.58;43.79
85531;SHT35;75970;52.122;5.406;2024-01-30T09:19:01;22.57;43.85
85531;SHT35;75970;52.122;5.406;2024-01-30T09:24:14;22.52;43.94
85531;SHT35;75970;52.122;5.406;2024-01-30T09:26:44;22.50;44.06
85531;SHT35;75970;52.122;5.406;2024-01-30T09:29:14;22.48;44.19
85531;SHT35;75970;52.122;5.406;2024-01-30T09:31:48;22.46;44.30
85531;SHT35;75970;52.122;5.406;2024-01-30T09:55:01;22.72;42.57
85531;SHT35;75970;52.122;5.406;2024-01-30T09:57:32;22.31;43.99
85531;SHT35;75970;52.122;5.406;2024-01-30T10:00:03;22.15;44.66
85531;SHT35;75970;52.122;5.406;2024-01-30T10:02:39;22.08;45.09
85531;SHT35;75970;52.122;5.406;2024-01-30T10:05:13;22.05;45.37
85531;SHT35;75970;52.122;5.406;2024-01-30T10:07:55;22.02;45.60
85531;SHT35;75970;52.122;5.406;2024-01-30T10:10:28;22.01;45.78
85531;SHT35;75970;52.122;5.406;2024-01-30T10:12:58;21.99;45.90
85531;SHT35;75970;52.122;5.406;2024-01-30T10:15:33;22.00;45.97
85531;SHT35;75970;52.122;5.406;2024-01-30T10:18:04;22.00;46.00
85531;SHT35;75970;52.122;5.406;2024-01-30T10:20:36;22.01;46.09
85531;SHT35;75970;52.122;5.406;2024-01-30T10:23:06;22.01;46.13
85531;SHT35;75970;52.122;5.406;2024-01-30T10:25:37;22.02;46.15
85531;SHT35;75970;52.122;5.406;2024-01-30T10:28:08;22.03;46.21
85531;SHT35;75970;52.122;5.406;2024-01-30T10:30:38;22.04;46.19
85531;SHT35;75970;52.122;5.406;2024-01-30T10:33:08;22.04;46.27
85531;SHT35;75970;52.122;5.406;2024-01-30T10:35:39;22.05;46.31
85531;SHT35;75970;52.122;5.406;2024-01-30T10:38:14;22.05;46.34
85531;SHT35;75970;52.122;5.406;2024-01-30T10:40:48;22.05;46.42
85531;SHT35;75970;52.122;5.406;2024-01-30T10:43:22;22.05;46.41
85531;SHT35;75970;52.122;5.406;2024-01-30T10:45:53;22.05;46.47
85531;SHT35;75970;52.122;5.406;2024-01-30T10:48:30;22.06;46.50
85531;SHT35;75970;52.122;5.406;2024-01-30T10:51:04;22.06;46.47
85531;SHT35;75970;52.122;5.406;2024-01-30T10:53:36;22.05;46.53
85531;SHT35;75970;52.122;5.406;2024-01-30T10:56:08;22.05;46.54
85531;SHT35;75970;52.122;5.406;2024-01-30T10:58:40;22.05;46.64
85531;SHT35;75970;52.122;5.406;2024-01-30T11:01:11;22.05;46.59
85531;SHT35;75970;52.122;5.406;2024-01-30T11:03:42;22.05;46.61
85531;SHT35;75970;52.122;5.406;2024-01-30T11:06:13;22.05;46.61
85531;SHT35;75970;52.122;5.406;2024-01-30T11:09:03;22.05;46.66
85531;SHT35;75970;52.122;5.406;2024-01-30T11:11:58;22.05;46.70
85531;SHT35;75970;52.122;5.406;2024-01-30T11:14:30;22.05;46.78
85531;SHT35;75970;52.122;5.406;2024-01-30T11:17:01;22.05;46.80
85531;SHT35;75970;52.122;5.406;2024-01-30T11:19:33;22.05;48.37
85531;SHT35;75970;52.122;5.406;2024-01-30T11:22:06;22.05;46.83
85531;SHT35;75970;52.122;5.406;2024-01-30T11:24:41;22.06;46.79
85531;SHT35;75970;52.122;5.406;2024-01-30T11:27:11;22.07;46.67
85531;SHT35;75970;52.122;5.406;2024-01-30T11:29:42;22.07;46.64
85531;SHT35;75970;52.122;5.406;2024-01-30T11:32:22;22.07;46.55
85531;SHT35;75970;52.122;5.406;2024-01-30T11:34:54;22.07;46.50
85531;SHT35;75970;52.122;5.406;2024-01-30T11:37:26;22.07;46.47
85531;SHT35;75970;52.122;5.406;2024-01-30T11:39:56;22.07;46.43
85531;SHT35;75970;52.122;5.406;2024-01-30T11:42:27;22.06;46.39
85531;SHT35;75970;52.122;5.406;2024-01-30T11:45:00;22.05;46.37
85531;SHT35;75970;52.122;5.406;2024-01-30T11:47:34;22.05;46.35
85531;SHT35;75970;52.122;5.406;2024-01-30T11:50:05;22.05;47.00
85531;SHT35;75970;52.122;5.406;2024-01-30T11:52:37;22.05;46.60
85531;SHT35;75970;52.122;5.406;2024-01-30T11:55:09;22.05;46.51
85531;SHT35;75970;52.122;5.406;2024-01-30T11:57:40;22.05;46.41
85531;SHT35;75970;52.122;5.406;2024-01-30T12:00:18;22.05;46.40
85531;SHT35;75970;52.122;5.406;2024-01-30T12:02:51;22.05;46.39
85531;SHT35;75970;52.122;5.406;2024-01-30T12:09:21;22.05;46.32
85531;SHT35;75970;52.122;5.406;2024-01-30T12:12:16;22.05;46.31
85531;SHT35;75970;52.122;5.406;2024-01-30T12:14:47;22.05;46.26
85531;SHT35;75970;52.122;5.406;2024-01-30T12:17:31;22.04;46.26
85531;SHT35;75970;52.122;5.406;2024-01-30T12:20:08;22.04;46.26
85531;SHT35;75970;52.122;5.406;2024-01-30T12:22:57;22.04;46.24
85531;SHT35;75970;52.122;5.406;2024-01-30T12:25:27;22.05;46.21
85531;SHT35;75970;52.122;5.406;2024-01-30T12:27:58;22.04;46.18
85531;SHT35;75970;52.122;5.406;2024-01-30T12:30:28;22.04;46.19
85531;SHT35;75970;52.122;5.406;2024-01-30T12:32:58;22.04;46.17
85531;SHT35;75970;52.122;5.406;2024-01-30T12:35:31;22.05;46.15
85531;SHT35;75970;52.122;5.406;2024-01-30T12:38:02;22.05;46.14
85531;SHT35;75970;52.122;5.406;2024-01-30T12:40:33;22.05;46.11
85531;SHT35;75970;52.122;5.406;2024-01-30T12:43:07;22.05;46.09
85531;SHT35;75970;52.122;5.406;2024-01-30T12:45:38;22.06;46.05
85531;SHT35;75970;52.122;5.406;2024-01-30T12:48:09;22.07;46.02
85531;SHT35;75970;52.122;5.406;2024-01-30T12:50:39;22.07;46.00
85531;SHT35;75970;52.122;5.406;2024-01-30T12:53:10;22.08;45.96
85531;SHT35;75970;52.122;5.406;2024-01-30T12:55:41;22.09;45.94
85531;SHT35;75970;52.122;5.406;2024-01-30T12:58:11;22.10;45.90
85531;SHT35;75970;52.122;5.406;2024-01-30T13:00:42;22.12;45.86
85531;SHT35;75970;52.122;5.406;2024-01-30T13:03:14;22.13;45.84
85531;SHT35;75970;52.122;5.406;2024-01-30T13:05:44;22.14;45.83
85531;SHT35;75970;52.122;5.406;2024-01-30T13:08:14;22.16;45.78
85531;SHT35;75970;52.122;5.406;2024-01-30T13:10:45;22.17;45.76
85531;SHT35;75970;52.122;5.406;2024-01-30T13:13:18;22.19;45.74
85531;SHT35;75970;52.122;5.406;2024-01-30T13:15:49;22.21;45.70
85531;SHT35;75970;52.122;5.406;2024-01-30T13:18:19;22.24;45.65
85531;SHT35;75970;52.122;5.406;2024-01-30T13:20:49;22.26;45.62
85531;SHT35;75970;52.122;5.406;2024-01-30T13:23:20;22.27;45.59
85531;SHT35;75970;52.122;5.406;2024-01-30T13:25:51;22.29;45.81
85531;SHT35;75970;52.122;5.406;2024-01-30T13:28:22;22.31;46.11
85531;SHT35;75970;52.122;5.406;2024-01-30T13:30:53;22.33;46.17
85531;SHT35;75970;52.122;5.406;2024-01-30T13:33:23;22.35;46.26
85531;SHT35;75970;52.122;5.406;2024-01-30T13:35:53;22.37;46.26
85531;SHT35;75970;52.122;5.406;2024-01-30T13:38:24;22.39;46.37
85531;SHT35;75970;52.122;5.406;2024-01-30T13:40:55;22.42;46.41
85531;SHT35;75970;52.122;5.406;2024-01-30T13:50:07;22.51;46.56
85531;SHT35;75970;52.122;5.406;2024-01-30T13:52:39;22.53;46.55
85531;SHT35;75970;52.122;5.406;2024-01-30T13:55:13;22.56;45.74
85531;SHT35;75970;52.122;5.406;2024-01-30T13:57:44;22.59;45.18
85531;SHT35;75970;52.122;5.406;2024-01-30T14:00:17;22.60;45.14
85531;SHT35;75970;52.122;5.406;2024-01-30T14:02:47;22.60;44.97
85531;SHT35;75970;52.122;5.406;2024-01-30T14:05:18;22.59;44.92
85531;SHT35;75970;52.122;5.406;2024-01-30T14:07:54;22.58;44.95
85531;SHT35;75970;52.122;5.406;2024-01-30T14:10:25;22.57;45.19
85531;SHT35;75970;52.122;5.406;2024-01-30T14:12:55;22.57;44.89
85531;SHT35;75970;52.122;5.406;2024-01-30T14:15:26;22.55;44.85
85531;SHT35;75970;52.122;5.406;2024-01-30T14:17:57;22.55;46.09
85531;SHT35;75970;52.122;5.406;2024-01-30T14:20:28;22.54;46.25
85531;SHT35;75970;52.122;5.406;2024-01-30T14:22:59;22.55;46.25
85531;SHT35;75970;52.122;5.406;2024-01-30T14:25:30;22.57;46.28
85531;SHT35;75970;52.122;5.406;2024-01-30T14:28:00;22.59;45.88
85531;SHT35;75970;52.122;5.406;2024-01-30T14:30:32;22.62;45.59
85531;SHT35;75970;52.122;5.406;2024-01-30T14:33:03;22.63;45.10
85531;SHT35;75970;52.122;5.406;2024-01-30T14:35:33;22.65;45.19
85531;SHT35;75970;52.122;5.406;2024-01-30T14:38:03;22.65;45.00
85531;SHT35;75970;52.122;5.406;2024-01-30T14:40:37;22.66;45.04
85531;SHT35;75970;52.122;5.406;2024-01-30T14:43:07;22.66;44.88
85531;SHT35;75970;52.122;5.406;2024-01-30T14:45:37;22.66;44.72
85531;SHT35;75970;52.122;5.406;2024-01-30T14:48:07;22.66;44.60
85531;SHT35;75970;52.122;5.406;2024-01-30T14:50:38;22.66;44.73
85531;SHT35;75970;52.122;5.406;2024-01-30T14:53:08;22.66;44.59
85531;SHT35;75970;52.122;5.406;2024-01-30T14:55:38;22.66;44.56
85531;SHT35;75970;52.122;5.406;2024-01-30T14:58:09;22.65;44.40
85531;SHT35;75970;52.122;5.406;2024-01-30T15:00:39;22.65;44.57
85531;SHT35;75970;52.122;5.406;2024-01-30T15:03:09;22.64;44.30
85531;SHT35;75970;52.122;5.406;2024-01-30T15:05:39;22.63;44.30
85531;SHT35;75970;52.122;5.406;2024-01-30T15:13:06;22.51;46.73
85531;SHT35;75970;52.122;5.406;2024-01-30T15:15:36;22.54;46.79
85531;SHT35;75970;52.122;5.406;2024-01-30T15:18:08;22.54;46.80
85531;SHT35;75970;52.122;5.406;2024-01-30T15:29:37;23.32;44.62
85531;SHT35;75970;52.122;5.406;2024-01-30T15:35:27;23.31;44.71
85531;SHT35;75970;52.122;5.406;2024-01-30T15:37:57;23.40;44.59
85531;SHT35;75970;52.122;5.406;2024-01-30T15:40:27;23.43;44.60
85531;SHT35;75970;52.122;5.406;2024-01-30T15:43:01;23.45;44.55
85531;SHT35;75970;52.122;5.406;2024-01-30T15:45:31;23.45;44.59
85531;SHT35;75970;52.122;5.406;2024-01-30T15:48:01;23.45;44.63
85531;SHT35;75970;52.122;5.406;2024-01-30T15:50:32;23.44;44.65
85531;SHT35;75970;52.122;5.406;2024-01-30T15:55:16;23.53;44.37
85531;SHT35;75970;52.122;5.406;2024-01-30T15:57:46;23.57;44.35
85531;SHT35;75970;52.122;5.406;2024-01-30T16:01:10;23.52;44.42
85531;SHT35;75970;52.122;5.406;2024-01-30T16:07:02;23.57;44.33
85531;SHT35;75970;52.122;5.406;2024-01-30T16:13:33;23.60;44.26
85531;SHT35;75970;52.122;5.406;2024-01-30T16:16:07;23.63;44.25
85531;SHT35;75970;52.122;5.406;2024-01-30T16:18:38;23.66;44.20
85531;SHT35;75970;52.122;5.406;2024-01-30T16:21:08;23.66;44.23
85531;SHT35;75970;52.122;5.406;2024-01-30T16:23:41;23.66;44.24
85531;SHT35;75970;52.122;5.406;2024-01-30T16:26:11;23.64;44.25
85531;SHT35;75970;52.122;5.406;2024-01-30T16:28:41;23.63;44.25
85531;SHT35;75970;52.122;5.406;2024-01-30T16:31:11;23.61;44.28
85531;SHT35;75970;52.122;5.406;2024-01-30T16:33:47;23.59;44.30
85531;SHT35;75970;52.122;5.406;2024-01-30T16:36:18;23.57;44.32
85531;SHT35;75970;52.122;5.406;2024-01-30T16:38:48;23.55;44.34
85531;SHT35;75970;52.122;5.406;2024-01-30T16:41:18;23.53;44.35
85531;SHT35;75970;52.122;5.406;2024-01-30T16:43:49;23.51;44.36
85531;SHT35;75970;52.122;5.406;2024-01-30T16:46:22;23.48;44.36
85531;SHT35;75970;52.122;5.406;2024-01-30T16:48:52;23.46;44.38
85531;SHT35;75970;52.122;5.406;2024-01-30T16:51:23;23.43;44.47
85531;SHT35;75970;52.122;5.406;2024-01-30T16:53:53;23.42;44.34
85531;SHT35;75970;52.122;5.406;2024-01-30T16:56:23;23.40;44.40